createdAt,value
2018-12-25T00:00:19.565Z,4.83
2018-12-25T00:02:47.506Z,4.66
2018-12-25T00:05:15.616Z,4.79
2018-12-25T00:07:43.806Z,4.88
2018-12-25T00:10:11.767Z,4.83
2018-12-25T00:12:39.665Z,4.70
2018-12-25T00:15:47.981Z,4.64
2018-12-25T00:18:16.080Z,4.72
2018-12-25T00:20:44.117Z,4.58
2018-12-25T00:23:12.206Z,4.61
2018-12-25T00:25:40.243Z,4.74
2018-12-25T00:28:08.154Z,4.61
2018-12-25T00:30:36.238Z,4.80
2018-12-25T00:33:04.296Z,4.62
2018-12-25T00:35:32.277Z,4.50
2018-12-25T00:38:00.263Z,4.52
2018-12-25T00:40:28.230Z,4.43
2018-12-25T00:42:56.184Z,4.61
2018-12-25T00:45:24.168Z,4.64
2018-12-25T00:47:52.116Z,4.61
2018-12-25T00:50:20.208Z,4.37
2018-12-25T00:52:48.239Z,4.35
2018-12-25T00:55:16.199Z,4.39
2018-12-25T00:57:44.104Z,4.27
2018-12-25T01:00:12.116Z,4.41
2018-12-25T01:02:40.457Z,4.29
2018-12-25T01:05:08.452Z,4.14
2018-12-25T01:07:36.436Z,4.22
2018-12-25T01:10:44.771Z,4.17
2018-12-25T01:13:12.842Z,4.32
2018-12-25T01:15:40.847Z,4.27
2018-12-25T01:18:08.839Z,4.29
2018-12-25T01:20:36.744Z,4.22
2018-12-25T01:23:04.743Z,4.36
2018-12-25T01:25:32.700Z,4.19
2018-12-25T01:28:00.719Z,4.13
2018-12-25T01:30:28.651Z,4.17
2018-12-25T01:32:56.747Z,4.21
2018-12-25T01:35:25.253Z,4.13
2018-12-25T01:37:53.651Z,4.03
2018-12-25T01:40:21.615Z,4.10
2018-12-25T01:42:49.546Z,3.96
2018-12-25T01:45:17.501Z,3.95
2018-12-25T01:47:45.472Z,3.80
2018-12-25T01:50:13.674Z,3.80
2018-12-25T01:52:41.665Z,3.73
2018-12-25T01:55:09.573Z,3.83
2018-12-25T01:57:37.653Z,3.92
2018-12-25T02:00:45.994Z,3.52
2018-12-25T02:03:14.071Z,3.51
2018-12-25T02:05:42.010Z,3.68
2018-12-25T02:08:09.991Z,3.70
2018-12-25T02:10:37.884Z,3.48
2018-12-25T02:13:05.876Z,3.34
2018-12-25T02:15:33.836Z,3.51
2018-12-25T02:18:01.735Z,3.58
2018-12-25T02:20:29.720Z,3.58
2018-12-25T02:22:57.706Z,3.55
2018-12-25T02:25:25.669Z,3.37
2018-12-25T02:27:53.611Z,3.37
2018-12-25T02:30:21.593Z,3.24
2018-12-25T02:32:49.485Z,3.33
2018-12-25T02:35:17.583Z,3.16
2018-12-25T02:37:45.678Z,3.01
2018-12-25T02:40:13.741Z,2.99
2018-12-25T02:42:41.598Z,3.05
2018-12-25T02:45:09.603Z,3.03
2018-12-25T02:47:37.546Z,3.08
2018-12-25T02:50:05.687Z,3.07
2018-12-25T02:52:34.137Z,2.80
2018-12-25T02:55:02.117Z,2.87
2018-12-25T02:57:30.077Z,2.83
2018-12-25T02:59:58.037Z,2.81
2018-12-25T03:02:26.011Z,2.47
2018-12-25T03:04:53.944Z,2.39
2018-12-25T03:07:21.917Z,2.32
2018-12-25T03:09:49.915Z,2.35
2018-12-25T03:12:17.845Z,2.44
2018-12-25T03:14:45.760Z,2.38
2018-12-25T03:17:13.711Z,2.22
2018-12-25T03:19:41.687Z,2.13
2018-12-25T03:22:09.518Z,1.95
2018-12-25T03:24:37.519Z,2.04
2018-12-25T03:27:05.445Z,2.09
2018-12-25T03:29:33.354Z,1.89
2018-12-25T03:32:01.181Z,1.97
2018-12-25T03:34:29.322Z,2.00
2018-12-25T03:36:57.434Z,2.04
2018-12-25T03:39:25.492Z,1.96
2018-12-25T03:41:53.406Z,2.09
2018-12-25T03:44:21.338Z,2.12
2018-12-25T03:46:49.252Z,2.04
2018-12-25T03:49:17.156Z,2.11
2018-12-25T03:51:45.045Z,2.14
2018-12-25T03:54:12.955Z,2.18
2018-12-25T03:56:40.869Z,2.32
2018-12-25T03:59:08.917Z,2.13
2018-12-25T04:01:36.862Z,2.09
2018-12-25T04:04:04.804Z,1.95
2018-12-25T04:06:32.749Z,2.05
2018-12-25T04:09:00.733Z,2.11
2018-12-25T04:11:28.641Z,2.16
2018-12-25T04:13:56.598Z,2.00
2018-12-25T04:16:24.482Z,2.04
2018-12-25T04:18:52.420Z,2.06
2018-12-25T04:21:20.365Z,1.95
2018-12-25T04:23:48.305Z,1.99
2018-12-25T04:26:16.292Z,2.19
2018-12-25T04:28:44.199Z,2.10
2018-12-25T04:31:12.933Z,2.07
2018-12-25T04:33:40.770Z,1.95
2018-12-25T04:36:08.846Z,1.88
2018-12-25T04:38:36.914Z,1.91
2018-12-25T04:41:04.999Z,1.94
2018-12-25T04:43:32.983Z,2.17
2018-12-25T04:46:01.060Z,2.18
2018-12-25T04:48:28.953Z,2.14
2018-12-25T04:50:57.472Z,2.14
2018-12-25T04:53:25.442Z,2.11
2018-12-25T04:55:53.369Z,2.25
2018-12-25T04:58:21.288Z,2.19
2018-12-25T05:00:49.284Z,2.22
2018-12-25T05:03:17.232Z,2.27
2018-12-25T05:05:45.291Z,2.31
2018-12-25T05:08:13.170Z,2.24
2018-12-25T05:10:41.176Z,2.26
2018-12-25T05:13:09.081Z,2.39
2018-12-25T05:15:36.993Z,2.52
2018-12-25T05:18:04.937Z,2.34
2018-12-25T05:20:37.777Z,2.37
2018-12-25T05:23:02.707Z,2.38
2018-12-25T05:25:30.644Z,2.47
2018-12-25T05:27:58.661Z,2.49
2018-12-25T05:30:26.480Z,2.46
2018-12-25T05:32:54.502Z,2.41
2018-12-25T05:35:22.466Z,2.44
2018-12-25T05:37:50.385Z,2.30
2018-12-25T05:40:18.430Z,2.18
2018-12-25T05:42:46.402Z,2.08
2018-12-25T05:45:14.319Z,2.19
2018-12-25T05:47:42.242Z,2.19
2018-12-25T05:50:10.173Z,2.27
2018-12-25T05:52:38.115Z,2.53
2018-12-25T05:55:05.972Z,2.47
2018-12-25T05:57:34.392Z,2.52
2018-12-25T06:00:02.464Z,2.62
2018-12-25T06:02:30.347Z,2.49
2018-12-25T06:04:58.299Z,2.55
2018-12-25T06:07:26.338Z,2.53
2018-12-25T06:09:54.293Z,2.43
2018-12-25T06:12:22.409Z,2.22
2018-12-25T06:14:50.317Z,2.36
2018-12-25T06:17:18.528Z,2.36
2018-12-25T06:19:46.444Z,2.35
2018-12-25T06:22:14.404Z,2.30
2018-12-25T06:24:42.656Z,2.32
2018-12-25T06:27:10.713Z,2.18
2018-12-25T06:29:38.762Z,2.05
2018-12-25T06:32:06.882Z,2.11
2018-12-25T06:34:34.859Z,2.21
2018-12-25T06:37:02.837Z,2.14
2018-12-25T06:39:30.909Z,1.98
2018-12-25T06:41:58.859Z,2.29
2018-12-25T06:44:26.857Z,2.17
2018-12-25T06:46:54.915Z,2.19
2018-12-25T06:49:23.011Z,2.42
2018-12-25T06:51:51.345Z,2.29
2018-12-25T06:54:19.250Z,2.18
2018-12-25T06:56:47.228Z,2.08
2018-12-25T06:59:15.279Z,1.82
2018-12-25T07:01:43.222Z,1.73
2018-12-25T07:04:11.140Z,1.66
2018-12-25T07:06:39.048Z,1.80
2018-12-25T07:09:07.455Z,1.77
2018-12-25T07:11:35.424Z,2.00
2018-12-25T07:14:03.599Z,2.00
2018-12-25T07:16:31.471Z,2.05
2018-12-25T07:18:59.435Z,2.06
2018-12-25T07:21:27.251Z,2.25
2018-12-25T07:23:55.207Z,2.26
2018-12-25T07:26:23.209Z,2.10
2018-12-25T07:28:51.121Z,2.08
2018-12-25T07:31:18.982Z,2.21
2018-12-25T07:33:46.898Z,2.15
2018-12-25T07:36:14.971Z,2.15
2018-12-25T07:38:43.069Z,2.06
2018-12-25T07:41:11.063Z,2.13
2018-12-25T07:43:39.197Z,1.86
2018-12-25T07:46:07.100Z,1.96
2018-12-25T07:48:35.019Z,2.10
2018-12-25T07:51:02.973Z,2.13
2018-12-25T07:53:30.880Z,2.19
2018-12-25T07:55:58.768Z,2.47
2018-12-25T07:58:26.906Z,2.26
2018-12-25T08:00:54.844Z,2.46
2018-12-25T08:03:22.816Z,2.46
2018-12-25T08:05:50.705Z,2.51
2018-12-25T08:08:18.604Z,2.22
2018-12-25T08:10:46.491Z,1.92
2018-12-25T08:13:14.407Z,1.92
2018-12-25T08:15:42.256Z,2.06
2018-12-25T08:18:10.183Z,2.08
2018-12-25T08:20:38.096Z,2.01
2018-12-25T08:23:06.115Z,2.02
2018-12-25T08:25:34.059Z,2.15
2018-12-25T08:28:01.983Z,2.24
2018-12-25T08:30:29.947Z,2.31
2018-12-25T08:32:57.885Z,2.58
2018-12-25T08:35:25.760Z,2.60
2018-12-25T08:37:53.693Z,2.47
2018-12-25T08:40:21.593Z,2.14
2018-12-25T08:42:49.479Z,2.08
2018-12-25T08:45:17.498Z,2.26
2018-12-25T08:47:45.511Z,2.01
2018-12-25T08:50:14.105Z,2.05
2018-12-25T08:53:22.443Z,2.11
2018-12-25T08:55:50.455Z,2.28
2018-12-25T08:58:18.383Z,2.36
2018-12-25T09:00:46.443Z,2.36
2018-12-25T09:03:14.360Z,2.36
2018-12-25T09:05:42.388Z,2.47
2018-12-25T09:08:10.386Z,2.40
2018-12-25T09:10:38.418Z,2.24
2018-12-25T09:13:06.371Z,2.49
2018-12-25T09:15:34.392Z,2.60
2018-12-25T09:18:02.344Z,2.56
2018-12-25T09:20:30.219Z,2.63
2018-12-25T09:22:58.172Z,2.69
2018-12-25T09:25:26.173Z,2.43
2018-12-25T09:27:54.197Z,2.41
2018-12-25T09:30:33.884Z,2.37
2018-12-25T09:33:01.894Z,2.58
2018-12-25T09:35:29.948Z,2.66
2018-12-25T09:37:58.051Z,2.75
2018-12-25T09:40:25.911Z,2.70
2018-12-25T09:42:53.917Z,2.67
2018-12-25T09:45:21.889Z,2.77
2018-12-25T09:47:49.878Z,2.60
2018-12-25T09:50:17.822Z,2.65
2018-12-25T09:52:45.738Z,2.77
2018-12-25T09:55:13.692Z,2.88
2018-12-25T09:57:41.615Z,2.85
2018-12-25T10:00:09.507Z,2.96
2018-12-25T10:02:37.649Z,2.68
2018-12-25T10:05:06.264Z,2.56
2018-12-25T10:07:34.122Z,2.55
2018-12-25T10:10:02.071Z,2.67
2018-12-25T10:12:30.382Z,2.96
2018-12-25T10:14:58.543Z,2.95
2018-12-25T10:17:26.406Z,2.77
2018-12-25T10:19:54.348Z,2.59
2018-12-25T10:22:22.338Z,2.69
2018-12-25T10:24:51.371Z,2.76
2018-12-25T10:27:20.062Z,3.05
2018-12-25T10:29:48.220Z,3.04
2018-12-25T10:32:16.561Z,3.07
2018-12-25T10:34:44.489Z,3.01
2018-12-25T10:37:12.516Z,3.19
2018-12-25T10:39:40.541Z,3.08
2018-12-25T10:42:08.588Z,2.97
2018-12-25T10:44:36.577Z,2.92
2018-12-25T10:47:04.514Z,2.95
2018-12-25T10:49:32.607Z,2.88
2018-12-25T10:52:00.674Z,3.07
2018-12-25T10:54:28.590Z,2.95
2018-12-25T10:56:56.729Z,2.94
2018-12-25T10:59:25.024Z,2.99
2018-12-25T11:01:52.941Z,2.94
2018-12-25T11:04:20.890Z,2.85
2018-12-25T11:06:49.408Z,2.75
2018-12-25T11:09:17.860Z,2.64
2018-12-25T11:11:45.677Z,2.68
2018-12-25T11:14:13.591Z,2.76
2018-12-25T11:16:41.522Z,2.78
2018-12-25T11:19:09.419Z,3.03
2018-12-25T11:21:37.332Z,3.11
2018-12-25T11:24:05.220Z,3.12
2018-12-25T11:26:33.118Z,2.81
2018-12-25T11:31:41.453Z,2.82
2018-12-25T11:34:09.345Z,2.82
2018-12-25T11:36:37.306Z,2.62
2018-12-25T11:39:06.536Z,2.31
2018-12-25T11:41:34.406Z,2.49
2018-12-25T11:44:02.234Z,2.72
2018-12-25T11:46:30.153Z,2.64
2018-12-25T11:48:58.061Z,2.67
2018-12-25T11:51:25.979Z,2.65
2018-12-25T11:53:53.823Z,2.65
2018-12-25T11:56:21.715Z,2.80
2018-12-25T11:58:49.596Z,2.74
2018-12-25T12:01:17.454Z,2.45
2018-12-25T12:03:45.338Z,2.52
2018-12-25T12:06:13.253Z,2.35
2018-12-25T12:08:41.112Z,2.48
2018-12-25T12:11:09.036Z,2.45
2018-12-25T12:13:37.079Z,2.26
2018-12-25T12:16:05.176Z,2.20
2018-12-25T12:18:33.049Z,2.27
2018-12-25T12:21:01.034Z,2.20
2018-12-25T12:23:29.136Z,2.03
2018-12-25T12:25:57.091Z,1.91
2018-12-25T12:28:24.961Z,1.98
2018-12-25T12:30:52.906Z,2.03
2018-12-25T12:33:20.994Z,2.25
2018-12-25T12:35:48.815Z,2.39
2018-12-25T12:38:16.732Z,2.38
2018-12-25T12:40:44.676Z,2.31
2018-12-25T12:43:12.619Z,2.40
2018-12-25T12:45:40.625Z,2.21
2018-12-25T12:48:08.475Z,2.43
2018-12-25T12:50:36.428Z,2.27
2018-12-25T12:53:04.330Z,2.16
2018-12-25T12:55:32.231Z,2.26
2018-12-25T12:58:00.163Z,2.06
2018-12-25T13:00:28.100Z,1.95
2018-12-25T13:02:55.958Z,2.09
2018-12-25T13:05:23.912Z,2.08
2018-12-25T13:07:51.804Z,2.04
2018-12-25T13:10:20.253Z,2.24
2018-12-25T13:12:48.392Z,2.04
2018-12-25T13:15:16.311Z,1.89
2018-12-25T13:17:45.417Z,1.92
2018-12-25T13:20:14.589Z,1.95
2018-12-25T13:22:42.554Z,2.04
2018-12-25T13:25:10.454Z,1.89
2018-12-25T13:27:38.396Z,1.84
2018-12-25T13:30:07.964Z,1.88
2018-12-25T13:32:35.879Z,1.89
2018-12-25T13:35:03.839Z,1.81
2018-12-25T13:37:31.782Z,1.76
2018-12-25T13:39:59.745Z,1.93
2018-12-25T13:42:27.628Z,2.00
2018-12-25T13:44:55.541Z,1.96
2018-12-25T13:47:23.612Z,2.00
2018-12-25T13:49:51.465Z,1.78
2018-12-25T13:52:19.387Z,1.84
2018-12-25T13:54:47.269Z,1.89
2018-12-25T13:57:15.179Z,1.83
2018-12-25T13:59:43.077Z,1.90
2018-12-25T14:02:10.991Z,1.82
2018-12-25T14:04:38.857Z,1.86
2018-12-25T14:07:06.758Z,1.66
2018-12-25T14:09:34.663Z,1.80
2018-12-25T14:12:02.658Z,1.81
2018-12-25T14:14:30.618Z,1.77
2018-12-25T14:16:58.500Z,1.81
2018-12-25T14:19:26.436Z,1.90
2018-12-25T14:21:54.390Z,1.64
2018-12-25T14:24:22.643Z,1.66
2018-12-25T14:26:50.610Z,1.69
2018-12-25T14:29:18.549Z,1.58
2018-12-25T14:31:46.474Z,1.59
2018-12-25T14:34:16.514Z,1.67
2018-12-25T14:36:44.355Z,1.75
2018-12-25T14:39:12.198Z,1.60
2018-12-25T14:41:40.171Z,1.63
2018-12-25T14:44:08.206Z,1.61
2018-12-25T14:46:36.142Z,1.46
2018-12-25T14:49:04.090Z,1.45
2018-12-25T14:51:32.036Z,1.28
2018-12-25T14:53:59.957Z,1.33
2018-12-25T14:56:27.934Z,1.43
2018-12-25T14:58:55.773Z,1.43
2018-12-25T15:01:23.699Z,1.25
2018-12-25T15:03:51.698Z,1.39
2018-12-25T15:06:19.576Z,1.40
2018-12-25T15:08:47.515Z,1.28
2018-12-25T15:11:15.458Z,1.22
2018-12-25T15:13:43.398Z,1.25
2018-12-25T15:16:11.356Z,1.20
2018-12-25T15:18:39.335Z,1.26
2018-12-25T15:21:07.200Z,1.12
2018-12-25T15:23:35.139Z,1.09
2018-12-25T15:26:03.180Z,1.11
2018-12-25T15:28:31.112Z,1.29
2018-12-25T15:30:59.023Z,1.21
2018-12-25T15:33:26.992Z,0.83
2018-12-25T15:35:55.168Z,0.81
2018-12-25T15:38:23.343Z,0.74
2018-12-25T15:40:51.511Z,0.93
2018-12-25T15:43:19.472Z,1.06
2018-12-25T15:45:47.336Z,1.04
2018-12-25T15:48:15.372Z,0.97
2018-12-25T15:50:43.482Z,0.97
2018-12-25T15:53:11.447Z,0.97
2018-12-25T15:55:39.356Z,1.05
2018-12-25T15:58:07.806Z,1.06
2018-12-25T16:00:35.885Z,0.96
2018-12-25T16:03:03.836Z,1.18
2018-12-25T16:05:31.840Z,1.17
2018-12-25T16:07:59.807Z,1.22
2018-12-25T16:10:27.813Z,1.22
2018-12-25T16:12:55.732Z,1.19
2018-12-25T16:15:23.657Z,1.25
2018-12-25T16:17:51.657Z,1.29
2018-12-25T16:20:21.357Z,1.29
2018-12-25T16:22:49.457Z,1.27
2018-12-25T16:25:17.411Z,1.16
2018-12-25T16:27:45.390Z,1.00
2018-12-25T16:30:13.366Z,1.05
2018-12-25T16:32:41.280Z,1.09
2018-12-25T16:35:09.215Z,0.98
2018-12-25T16:37:48.434Z,0.98
2018-12-25T16:40:16.507Z,0.92
2018-12-25T16:42:44.444Z,0.95
2018-12-25T16:45:12.481Z,1.00
2018-12-25T16:47:40.503Z,0.83
2018-12-25T16:50:08.434Z,0.99
2018-12-25T16:52:36.277Z,0.99
2018-12-25T16:55:04.358Z,0.97
2018-12-25T16:57:32.295Z,0.84
2018-12-25T17:00:00.329Z,0.87
2018-12-25T17:02:28.238Z,1.08
2018-12-25T17:04:56.357Z,1.05
2018-12-25T17:07:24.222Z,1.22
2018-12-25T17:09:52.150Z,1.01
2018-12-25T17:12:20.166Z,1.03
2018-12-25T17:14:48.578Z,0.92
2018-12-25T17:17:19.592Z,1.08
2018-12-25T17:19:47.481Z,1.07
2018-12-25T17:22:15.414Z,1.08
2018-12-25T17:24:43.522Z,0.94
2018-12-25T17:27:11.461Z,1.02
2018-12-25T17:29:39.547Z,0.83
2018-12-25T17:32:07.486Z,0.89
2018-12-25T17:34:35.397Z,0.99
2018-12-25T17:37:03.400Z,0.94
2018-12-25T17:39:31.345Z,0.89
2018-12-25T17:41:59.355Z,0.92
2018-12-25T17:44:27.354Z,0.97
2018-12-25T17:46:55.240Z,0.93
2018-12-25T17:49:23.165Z,0.83
2018-12-25T17:51:51.034Z,0.78
2018-12-25T17:54:19.076Z,0.95
2018-12-25T17:56:47.020Z,1.09
2018-12-25T17:59:14.932Z,1.15
2018-12-25T18:01:42.869Z,0.95
2018-12-25T18:04:10.779Z,1.04
2018-12-25T18:06:38.677Z,0.98
2018-12-25T18:09:06.736Z,0.97
2018-12-25T18:11:34.690Z,1.03
2018-12-25T18:14:02.620Z,0.56
2018-12-25T18:16:30.487Z,0.70
2018-12-25T18:18:58.444Z,0.69
2018-12-25T18:21:26.388Z,0.86
2018-12-25T18:23:54.633Z,0.89
2018-12-25T18:26:22.503Z,1.05
2018-12-25T18:28:50.456Z,0.89
2018-12-25T18:31:18.466Z,0.78
2018-12-25T18:33:46.468Z,0.81
2018-12-25T18:36:14.300Z,0.78
2018-12-25T18:38:42.216Z,0.66
2018-12-25T18:41:10.172Z,0.64
2018-12-25T18:43:38.216Z,0.71
2018-12-25T18:46:06.036Z,0.84
2018-12-25T18:48:34.040Z,0.68
2018-12-25T18:51:02.014Z,0.63
2018-12-25T18:53:29.886Z,0.42
2018-12-25T18:55:57.879Z,0.26
2018-12-25T18:58:25.803Z,0.30
2018-12-25T19:00:53.719Z,0.23
2018-12-25T19:03:21.623Z,0.27
2018-12-25T19:05:49.668Z,0.08
2018-12-25T19:08:17.635Z,0.22
2018-12-25T19:10:45.472Z,0.23
2018-12-25T19:13:13.610Z,0.08
2018-12-25T19:15:41.808Z,0.03
2018-12-25T19:18:12.096Z,0.00
2018-12-25T19:20:40.131Z,0.15
2018-12-25T19:23:08.069Z,0.30
2018-12-25T19:25:36.000Z,0.16
2018-12-25T19:28:03.953Z,0.14
2018-12-25T19:30:33.644Z,0.22
2018-12-25T19:33:01.683Z,0.26
2018-12-25T19:35:29.651Z,0.34
2018-12-25T19:37:57.620Z,0.28
2018-12-25T19:40:38.057Z,0.36
2018-12-25T19:43:06.373Z,0.35
2018-12-25T19:45:57.317Z,0.65
2018-12-25T19:48:25.347Z,0.76
2018-12-25T19:50:53.258Z,0.69
2018-12-25T19:53:21.180Z,0.72
2018-12-25T19:55:49.154Z,0.64
2018-12-25T19:58:17.020Z,0.68
2018-12-25T20:00:44.984Z,0.73
2018-12-25T20:03:37.351Z,0.80
2018-12-25T20:06:43.841Z,0.61
2018-12-25T20:09:50.431Z,0.45
2018-12-25T20:12:57.336Z,0.49
2018-12-25T20:16:03.858Z,0.58
2018-12-25T20:19:11.265Z,0.37
2018-12-25T20:22:17.731Z,0.26
2018-12-25T20:25:24.196Z,0.40
2018-12-25T20:28:30.673Z,0.37
2018-12-25T20:31:43.269Z,0.25
2018-12-25T20:34:49.743Z,0.29
2018-12-25T20:37:56.130Z,0.56
2018-12-25T20:41:03.147Z,0.65
2018-12-25T20:44:10.723Z,0.51
2018-12-25T20:47:17.432Z,0.56
2018-12-25T20:50:23.875Z,0.43
2018-12-25T20:53:30.349Z,0.37
2018-12-25T20:56:36.797Z,0.51
2018-12-25T20:59:50.723Z,0.47
2018-12-25T21:03:08.203Z,0.42
2018-12-25T21:06:26.139Z,0.40
2018-12-25T21:09:32.636Z,0.40
2018-12-25T21:16:15.993Z,0.47
2018-12-25T21:19:22.467Z,0.42
2018-12-25T21:22:28.982Z,0.38
2018-12-25T21:25:35.415Z,0.54
2018-12-25T21:28:01.944Z,0.57
2018-12-25T21:30:30.053Z,0.50
2018-12-25T21:32:57.885Z,0.25
2018-12-25T21:35:26.137Z,0.20
2018-12-25T21:38:15.514Z,0.44
2018-12-25T21:40:54.624Z,0.45
2018-12-25T21:43:22.795Z,0.61
2018-12-25T21:45:50.851Z,0.57
2018-12-25T21:48:18.865Z,0.53
2018-12-25T21:56:45.201Z,0.44
2018-12-25T21:59:13.265Z,0.53
2018-12-25T22:01:41.325Z,0.49
2018-12-25T22:04:09.451Z,0.23
2018-12-25T22:06:37.384Z,0.45
2018-12-25T22:09:06.760Z,0.26
2018-12-25T22:11:34.645Z,0.10
2018-12-25T22:14:02.656Z,0.15
2018-12-25T22:16:30.558Z,0.01
2018-12-25T22:18:59.135Z,0.12
2018-12-25T22:21:27.080Z,0.49
2018-12-25T22:23:54.969Z,0.19
2018-12-25T22:26:22.948Z,0.29
2018-12-25T22:28:50.877Z,0.40
2018-12-25T22:31:18.780Z,0.14
2018-12-25T22:33:46.835Z,0.11
2018-12-25T22:36:14.833Z,0.22
2018-12-25T22:38:42.766Z,0.12
2018-12-25T22:41:29.957Z,-0.03
2018-12-25T22:49:18.826Z,0.15
2018-12-25T22:51:46.824Z,-0.06
2018-12-25T22:54:14.732Z,0.16
2018-12-25T22:56:42.631Z,0.08
2018-12-25T22:59:10.574Z,0.28
2018-12-25T23:01:38.371Z,0.04
2018-12-25T23:04:06.302Z,0.11
2018-12-25T23:06:34.240Z,0.15
2018-12-25T23:09:21.451Z,0.10
2018-12-25T23:11:49.415Z,0.10
2018-12-25T23:14:17.306Z,-0.03
2018-12-25T23:17:04.432Z,0.10
2018-12-25T23:19:32.423Z,0.10
2018-12-25T23:22:00.345Z,0.26
2018-12-25T23:24:28.200Z,0.17
2018-12-25T23:26:56.094Z,0.23
2018-12-25T23:29:23.973Z,0.08
2018-12-25T23:31:51.823Z,0.06
2018-12-25T23:34:19.793Z,0.11
2018-12-25T23:36:47.714Z,-0.12
2018-12-25T23:39:15.546Z,-0.01
2018-12-25T23:41:43.441Z,0.13
2018-12-25T23:44:11.371Z,0.10
2018-12-25T23:46:39.369Z,0.17
2018-12-25T23:49:07.392Z,0.30
2018-12-25T23:51:35.305Z,0.39
2018-12-25T23:54:03.244Z,0.19
2018-12-25T23:56:31.157Z,0.07
2018-12-25T23:58:59.190Z,0.10
